sensor_id;sensor_type;location;lat;lon;timestamp;pressure;altitude;pressure_sealevel;temperature;humidity
55347;BME280;41218;55.700;38.270;2022-08-02T00:02:54;99968.47;;;15.25;56.85
55347;BME280;41218;55.700;38.270;2022-08-02T00:07:55;99961.72;;;15.15;56.72
55347;BME280;41218;55.700;38.270;2022-08-02T00:12:55;99978.41;;;15.18;56.88
55347;BME280;41218;55.700;38.270;2022-08-02T00:17:56;99966.09;;;15.09;56.90
55347;BME280;41218;55.700;38.270;2022-08-02T00:22:56;99927.47;;;14.82;56.85
55347;BME280;41218;55.700;38.270;2022-08-02T00:27:57;99964.91;;;15.02;56.88
55347;BME280;41218;55.700;38.270;2022-08-02T00:32:57;99979.22;;;15.05;57.54
55347;BME280;41218;55.700;38.270;2022-08-02T00:37:58;99944.56;;;14.80;57.23
55347;BME280;41218;55.700;38.270;2022-08-02T00:43:07;99939.78;;;14.70;57.26
55347;BME280;41218;55.700;38.270;2022-08-02T00:48:10;99972.78;;;14.90;57.33
55347;BME280;41218;55.700;38.270;2022-08-02T00:53:11;99960.03;;;14.78;57.61
55347;BME280;41218;55.700;38.270;2022-08-02T00:58:12;99974.34;;;14.80;57.50
55347;BME280;41218;55.700;38.270;2022-08-02T01:03:13;99968.38;;;14.71;57.67
55347;BME280;41218;55.700;38.270;2022-08-02T01:08:13;99942.06;;;14.54;57.76
55347;BME280;41218;55.700;38.270;2022-08-02T01:13:14;99966.75;;;14.59;57.69
55347;BME280;41218;55.700;38.270;2022-08-02T01:18:24;99977.09;;;14.62;58.24
55347;BME280;41218;55.700;38.270;2022-08-02T01:34:58;99978.22;;;14.50;58.15
55347;BME280;41218;55.700;38.270;2022-08-02T01:39:33;99967.44;;;14.41;58.09
55347;BME280;41218;55.700;38.270;2022-08-02T01:44:37;99958.66;;;14.32;58.20
55347;BME280;41218;55.700;38.270;2022-08-02T01:49:41;99972.19;;;14.34;58.29
55347;BME280;41218;55.700;38.270;2022-08-02T01:54:44;99983.72;;;14.36;58.13
55347;BME280;41218;55.700;38.270;2022-08-02T01:59:47;99970.56;;;14.26;58.41
55347;BME280;41218;55.700;38.270;2022-08-02T02:04:49;99978.88;;;14.22;58.52
55347;BME280;41218;55.700;38.270;2022-08-02T02:09:52;99986.41;;;14.25;58.67
55347;BME280;41218;55.700;38.270;2022-08-02T02:14:54;99974.47;;;14.14;58.60
55347;BME280;41218;55.700;38.270;2022-08-02T02:19:56;99987.19;;;14.18;58.65
55347;BME280;41218;55.700;38.270;2022-08-02T02:24:58;99979.22;;;14.10;58.70
55347;BME280;41218;55.700;38.270;2022-08-02T02:29:58;99966.88;;;14.03;58.75
55347;BME280;41218;55.700;38.270;2022-08-02T02:35:02;99982.78;;;14.10;59.23
55347;BME280;41218;55.700;38.270;2022-08-02T02:40:03;99998.31;;;14.18;59.25
55347;BME280;41218;55.700;38.270;2022-08-02T02:45:05;99976.78;;;14.05;59.43
55347;BME280;41218;55.700;38.270;2022-08-02T02:50:07;99984.72;;;14.02;59.46
55347;BME280;41218;55.700;38.270;2022-08-02T02:55:09;100001.06;;;14.15;59.99
55347;BME280;41218;55.700;38.270;2022-08-02T03:00:12;99997.91;;;14.16;60.15
55347;BME280;41218;55.700;38.270;2022-08-02T03:05:13;99966.44;;;13.98;60.03
55347;BME280;41218;55.700;38.270;2022-08-02T03:10:15;99985.19;;;14.15;60.35
55347;BME280;41218;55.700;38.270;2022-08-02T03:15:16;99989.56;;;14.16;60.53
55347;BME280;41218;55.700;38.270;2022-08-02T03:20:19;99984.44;;;14.22;60.72
55347;BME280;41218;55.700;38.270;2022-08-02T03:25:19;99974.09;;;14.15;60.64
55347;BME280;41218;55.700;38.270;2022-08-02T03:30:20;99943.44;;;14.05;61.04
55347;BME280;41218;55.700;38.270;2022-08-02T03:35:24;99991.66;;;14.37;61.35
55347;BME280;41218;55.700;38.270;2022-08-02T03:40:25;99996.91;;;14.50;62.07
55347;BME280;41218;55.700;38.270;2022-08-02T03:45:27;99996.16;;;14.56;62.42
55347;BME280;41218;55.700;38.270;2022-08-02T03:50:29;99991.41;;;14.64;62.76
55347;BME280;41218;55.700;38.270;2022-08-02T03:55:31;99966.75;;;14.59;63.10
55347;BME280;41218;55.700;38.270;2022-08-02T04:00:33;100003.03;;;14.95;63.32
55347;BME280;41218;55.700;38.270;2022-08-02T04:05:33;99996.72;;;15.05;63.73
55347;BME280;41218;55.700;38.270;2022-08-02T04:10:34;99985.19;;;15.17;63.76
55347;BME280;41218;55.700;38.270;2022-08-02T04:15:58;100003.50;;;15.51;63.86
55347;BME280;41218;55.700;38.270;2022-08-02T04:21:03;99993.56;;;15.64;63.64
55347;BME280;41218;55.700;38.270;2022-08-02T04:26:05;99999.56;;;15.88;63.52
55347;BME280;41218;55.700;38.270;2022-08-02T04:31:06;100003.09;;;16.10;63.20
55347;BME280;41218;55.700;38.270;2022-08-02T04:36:07;100003.44;;;16.37;62.88
55347;BME280;41218;55.700;38.270;2022-08-02T04:41:08;99985.91;;;16.36;62.92
55347;BME280;41218;55.700;38.270;2022-08-02T04:46:08;99982.63;;;16.56;62.67
55347;BME280;41218;55.700;38.270;2022-08-02T04:51:09;99994.09;;;16.79;62.46
55347;BME280;41218;55.700;38.270;2022-08-02T04:56:09;100000.41;;;17.01;62.27
55347;BME280;41218;55.700;38.270;2022-08-02T05:01:10;100012.94;;;17.35;62.04
55347;BME280;41218;55.700;38.270;2022-08-02T05:06:11;100006.88;;;17.43;61.34
55347;BME280;41218;55.700;38.270;2022-08-02T05:11:11;100000.78;;;17.59;61.12
55347;BME280;41218;55.700;38.270;2022-08-02T05:16:12;100011.34;;;17.90;60.83
55347;BME280;41218;55.700;38.270;2022-08-02T05:21:12;99996.50;;;17.96;60.42
55347;BME280;41218;55.700;38.270;2022-08-02T05:26:13;100001.38;;;18.27;60.37
55347;BME280;41218;55.700;38.270;2022-08-02T05:31:13;100002.78;;;18.46;60.24
55347;BME280;41218;55.700;38.270;2022-08-02T05:36:13;99990.09;;;18.68;59.84
55347;BME280;41218;55.700;38.270;2022-08-02T05:41:14;99999.03;;;18.90;59.48
55347;BME280;41218;55.700;38.270;2022-08-02T05:46:14;99988.34;;;19.12;59.00
55347;BME280;41218;55.700;38.270;2022-08-02T05:51:19;99996.03;;;19.32;58.80
55347;BME280;41218;55.700;38.270;2022-08-02T05:56:29;99982.47;;;19.54;58.14
55347;BME280;41218;55.700;38.270;2022-08-02T06:01:33;99978.56;;;19.75;57.71
55347;BME280;41218;55.700;38.270;2022-08-02T06:06:36;99977.31;;;19.99;57.35
55347;BME280;41218;55.700;38.270;2022-08-02T06:11:42;99978.50;;;20.22;57.01
55347;BME280;41218;55.700;38.270;2022-08-02T06:16:44;99979.78;;;20.37;56.71
55347;BME280;41218;55.700;38.270;2022-08-02T06:21:44;99979.06;;;20.53;56.34
55347;BME280;41218;55.700;38.270;2022-08-02T06:26:45;99972.31;;;20.71;55.90
55347;BME280;41218;55.700;38.270;2022-08-02T06:31:51;99966.75;;;20.87;55.65
55347;BME280;41218;55.700;38.270;2022-08-02T06:36:57;99960.72;;;21.05;55.20
55347;BME280;41218;55.700;38.270;2022-08-02T06:42:01;99965.94;;;21.23;54.81
55347;BME280;41218;55.700;38.270;2022-08-02T06:47:02;99959.97;;;21.37;54.47
55347;BME280;41218;55.700;38.270;2022-08-02T06:52:03;99964.03;;;21.53;54.25
55347;BME280;41218;55.700;38.270;2022-08-02T06:57:03;99952.41;;;21.67;54.03
55347;BME280;41218;55.700;38.270;2022-08-02T07:02:04;99955.38;;;21.76;53.81
55347;BME280;41218;55.700;38.270;2022-08-02T07:07:04;99954.31;;;21.87;53.63
55347;BME280;41218;55.700;38.270;2022-08-02T07:12:05;99957.19;;;21.99;53.16
55347;BME280;41218;55.700;38.270;2022-08-02T07:17:05;99949.59;;;22.13;52.07
55347;BME280;41218;55.700;38.270;2022-08-02T07:22:06;99944.81;;;22.26;52.05
55347;BME280;41218;55.700;38.270;2022-08-02T07:27:06;99952.53;;;22.38;51.90
55347;BME280;41218;55.700;38.270;2022-08-02T07:32:07;99941.28;;;22.51;51.79
55347;BME280;41218;55.700;38.270;2022-08-02T07:37:07;99950.88;;;22.67;51.38
55347;BME280;41218;55.700;38.270;2022-08-02T07:42:08;99942.34;;;22.83;51.40
55347;BME280;41218;55.700;38.270;2022-08-02T07:47:08;99945.31;;;23.05;50.67
55347;BME280;41218;55.700;38.270;2022-08-02T07:52:09;99944.06;;;23.19;50.10
55347;BME280;41218;55.700;38.270;2022-08-02T07:57:09;99931.09;;;23.34;49.72
55347;BME280;41218;55.700;38.270;2022-08-02T08:02:10;99940.44;;;23.44;49.32
55347;BME280;41218;55.700;38.270;2022-08-02T08:07:10;99920.91;;;23.37;49.08
55347;BME280;41218;55.700;38.270;2022-08-02T08:12:11;99947.09;;;23.50;48.95
55347;BME280;41218;55.700;38.270;2022-08-02T08:17:11;99945.13;;;23.60;49.00
55347;BME280;41218;55.700;38.270;2022-08-02T08:22:11;99947.47;;;23.74;48.32
55347;BME280;41218;55.700;38.270;2022-08-02T08:27:12;99944.53;;;23.78;48.14
55347;BME280;41218;55.700;38.270;2022-08-02T08:32:14;99939.34;;;23.76;47.67
55347;BME280;41218;55.700;38.270;2022-08-02T08:37:14;99931.56;;;23.81;47.87
55347;BME280;41218;55.700;38.270;2022-08-02T08:42:15;99939.06;;;23.96;47.77
55347;BME280;41218;55.700;38.270;2022-08-02T08:47:17;99940.69;;;24.07;47.63
55347;BME280;41218;55.700;38.270;2022-08-02T08:52:18;99931.66;;;24.12;47.07
55347;BME280;41218;55.700;38.270;2022-08-02T08:57:23;99923.31;;;24.30;47.13
55347;BME280;41218;55.700;38.270;2022-08-02T09:02:23;99910.31;;;24.55;46.89
55347;BME280;41218;55.700;38.270;2022-08-02T09:07:24;99910.50;;;24.61;46.25
55347;BME280;41218;55.700;38.270;2022-08-02T09:12:24;99913.72;;;24.72;45.60
55347;BME280;41218;55.700;38.270;2022-08-02T09:17:25;99919.84;;;24.79;45.50
55347;BME280;41218;55.700;38.270;2022-08-02T09:22:25;99907.63;;;24.83;45.16
55347;BME280;41218;55.700;38.270;2022-08-02T09:27:26;99906.03;;;24.82;45.06
55347;BME280;41218;55.700;38.270;2022-08-02T09:32:27;99907.91;;;24.75;44.59
55347;BME280;41218;55.700;38.270;2022-08-02T09:37:32;99900.50;;;24.69;44.66
55347;BME280;41218;55.700;38.270;2022-08-02T09:42:33;99899.06;;;24.64;45.07
55347;BME280;41218;55.700;38.270;2022-08-02T09:47:33;99890.25;;;24.62;44.61
55347;BME280;41218;55.700;38.270;2022-08-02T09:52:34;99891.38;;;24.65;44.43
55347;BME280;41218;55.700;38.270;2022-08-02T09:57:35;99892.97;;;24.75;43.87
55347;BME280;41218;55.700;38.270;2022-08-02T10:02:38;99885.66;;;24.87;44.19
55347;BME280;41218;55.700;38.270;2022-08-02T10:07:39;99895.41;;;24.95;43.95
55347;BME280;41218;55.700;38.270;2022-08-02T10:12:39;99884.78;;;25.08;43.58
55347;BME280;41218;55.700;38.270;2022-08-02T10:17:40;99880.41;;;25.16;43.64
55347;BME280;41218;55.700;38.270;2022-08-02T10:22:41;99872.28;;;25.28;42.91
55347;BME280;41218;55.700;38.270;2022-08-02T10:27:43;99871.97;;;25.44;42.50
55347;BME280;41218;55.700;38.270;2022-08-02T10:32:43;99870.28;;;25.65;41.92
55347;BME280;41218;55.700;38.270;2022-08-02T10:37:45;99865.56;;;25.81;41.93
55347;BME280;41218;55.700;38.270;2022-08-02T10:42:48;99870.13;;;25.96;41.59
55347;BME280;41218;55.700;38.270;2022-08-02T10:47:59;99877.38;;;26.07;41.30
55347;BME280;41218;55.700;38.270;2022-08-02T10:53:17;99875.19;;;26.02;41.61
55347;BME280;41218;55.700;38.270;2022-08-02T10:58:18;99865.41;;;25.84;41.09
55347;BME280;41218;55.700;38.270;2022-08-02T11:08:27;99845.41;;;25.78;41.28
55347;BME280;41218;55.700;38.270;2022-08-02T11:13:27;99852.22;;;26.00;41.04
55347;BME280;41218;55.700;38.270;2022-08-02T11:23:48;99844.16;;;26.07;40.70
55347;BME280;41218;55.700;38.270;2022-08-02T11:28:48;99857.38;;;26.10;40.75
55347;BME280;41218;55.700;38.270;2022-08-02T11:33:49;99851.72;;;26.10;40.21
55347;BME280;41218;55.700;38.270;2022-08-02T11:38:50;99851.09;;;26.06;40.73
55347;BME280;41218;55.700;38.270;2022-08-02T11:44:07;99848.56;;;25.99;40.65
55347;BME280;41218;55.700;38.270;2022-08-02T11:49:14;99849.53;;;25.96;40.71
55347;BME280;41218;55.700;38.270;2022-08-02T11:54:21;99852.53;;;25.92;40.24
55347;BME280;41218;55.700;38.270;2022-08-02T11:59:21;99847.16;;;25.85;40.48
55347;BME280;41218;55.700;38.270;2022-08-02T12:04:22;99847.63;;;25.84;40.45
55347;BME280;41218;55.700;38.270;2022-08-02T12:09:22;99846.69;;;25.87;40.69
55347;BME280;41218;55.700;38.270;2022-08-02T12:14:25;99843.53;;;25.85;40.61
55347;BME280;41218;55.700;38.270;2022-08-02T12:19:25;99843.53;;;25.85;40.41
55347;BME280;41218;55.700;38.270;2022-08-02T12:24:27;99837.88;;;25.85;41.04
55347;BME280;41218;55.700;38.270;2022-08-02T12:29:31;99837.72;;;25.79;40.48
55347;BME280;41218;55.700;38.270;2022-08-02T12:34:32;99842.91;;;25.81;40.29
55347;BME280;41218;55.700;38.270;2022-08-02T12:39:37;99854.56;;;25.92;39.94
55347;BME280;41218;55.700;38.270;2022-08-02T12:44:49;99850.47;;;26.02;40.00
55347;BME280;41218;55.700;38.270;2022-08-02T12:55:22;99833.22;;;26.33;39.83
55347;BME280;41218;55.700;38.270;2022-08-02T13:00:28;99838.84;;;26.52;39.50
55347;BME280;41218;55.700;38.270;2022-08-02T13:05:29;99850.19;;;26.61;39.20
55347;BME280;41218;55.700;38.270;2022-08-02T13:10:29;99841.31;;;26.68;39.21
55347;BME280;41218;55.700;38.270;2022-08-02T13:15:30;99840.34;;;26.81;38.88
55347;BME280;41218;55.700;38.270;2022-08-02T13:20:31;99838.22;;;26.90;38.69
55347;BME280;41218;55.700;38.270;2022-08-02T13:25:32;99835.56;;;26.87;38.68
55347;BME280;41218;55.700;38.270;2022-08-02T13:30:32;99834.66;;;26.81;38.34
55347;BME280;41218;55.700;38.270;2022-08-02T13:35:32;99825.72;;;26.73;38.52
55347;BME280;41218;55.700;38.270;2022-08-02T13:40:33;99827.78;;;26.72;38.61
55347;BME280;41218;55.700;38.270;2022-08-02T13:45:33;99825.72;;;26.73;38.40
55347;BME280;41218;55.700;38.270;2022-08-02T13:50:34;99808.75;;;26.64;38.68
55347;BME280;41218;55.700;38.270;2022-08-02T13:55:34;99813.63;;;26.63;38.47
55347;BME280;41218;55.700;38.270;2022-08-02T14:00:34;99815.53;;;26.57;38.41
55347;BME280;41218;55.700;38.270;2022-08-02T14:05:38;99813.31;;;26.52;38.69
55347;BME280;41218;55.700;38.270;2022-08-02T14:10:39;99807.03;;;26.48;38.87
55347;BME280;41218;55.700;38.270;2022-08-02T16:36:47;99761.91;;;24.10;44.60
55347;BME280;41218;55.700;38.270;2022-08-02T16:41:47;99795.34;;;24.11;45.17
55347;BME280;41218;55.700;38.270;2022-08-02T16:46:48;99800.34;;;24.07;45.42
55347;BME280;41218;55.700;38.270;2022-08-02T16:51:49;99813.94;;;23.99;45.75
55347;BME280;41218;55.700;38.270;2022-08-02T16:56:51;99802.84;;;23.83;46.09
55347;BME280;41218;55.700;38.270;2022-08-02T17:01:52;99808.38;;;23.74;46.38
55347;BME280;41218;55.700;38.270;2022-08-02T17:06:52;99810.03;;;23.62;46.52
55347;BME280;41218;55.700;38.270;2022-08-02T17:11:53;99837.13;;;23.59;46.65
55347;BME280;41218;55.700;38.270;2022-08-02T17:16:53;99828.97;;;23.39;47.20
55347;BME280;41218;55.700;38.270;2022-08-02T17:21:54;99823.16;;;23.21;47.84
55347;BME280;41218;55.700;38.270;2022-08-02T17:26:54;99832.75;;;23.11;48.36
55347;BME280;41218;55.700;38.270;2022-08-02T17:31:55;99853.19;;;23.02;48.27
55347;BME280;41218;55.700;38.270;2022-08-02T17:36:56;99852.72;;;22.91;48.15
55347;BME280;41218;55.700;38.270;2022-08-02T17:41:56;99840.78;;;22.74;48.48
55347;BME280;41218;55.700;38.270;2022-08-02T17:46:57;99841.25;;;22.59;48.70
55347;BME280;41218;55.700;38.270;2022-08-02T17:51:57;99853.97;;;22.51;48.85
55347;BME280;41218;55.700;38.270;2022-08-02T17:56:58;99857.13;;;22.40;48.76
55347;BME280;41218;55.700;38.270;2022-08-02T18:02:01;99862.72;;;22.28;49.22
55347;BME280;41218;55.700;38.270;2022-08-02T18:07:03;99862.66;;;22.15;49.27
55347;BME280;41218;55.700;38.270;2022-08-02T18:12:04;99851.25;;;21.93;49.31
55347;BME280;41218;55.700;38.270;2022-08-02T18:17:05;99851.44;;;21.86;49.56
55347;BME280;41218;55.700;38.270;2022-08-02T18:22:05;99841.03;;;21.70;49.95
55347;BME280;41218;55.700;38.270;2022-08-02T18:27:06;99852.13;;;21.60;50.00
55347;BME280;41218;55.700;38.270;2022-08-02T18:32:07;99848.19;;;21.41;50.06
55347;BME280;41218;55.700;38.270;2022-08-02T18:37:07;99803.88;;;21.00;50.26
55347;BME280;41218;55.700;38.270;2022-08-02T18:42:08;99833.72;;;21.10;50.28
55347;BME280;41218;55.700;38.270;2022-08-02T18:47:09;99842.88;;;20.98;50.78
55347;BME280;41218;55.700;38.270;2022-08-02T18:52:09;99853.47;;;20.90;50.71
55347;BME280;41218;55.700;38.270;2022-08-02T18:57:10;99815.34;;;20.56;51.11
55347;BME280;41218;55.700;38.270;2022-08-02T19:02:10;99852.88;;;20.66;51.04
55347;BME280;41218;55.700;38.270;2022-08-02T19:07:11;99854.72;;;20.53;50.99
55347;BME280;41218;55.700;38.270;2022-08-02T19:12:12;99847.41;;;20.39;51.44
55347;BME280;41218;55.700;38.270;2022-08-02T19:17:12;99857.56;;;20.33;51.59
55347;BME280;41218;55.700;38.270;2022-08-02T19:22:13;99862.19;;;20.23;51.56
55347;BME280;41218;55.700;38.270;2022-08-02T19:27:14;99835.88;;;19.97;51.89
55347;BME280;41218;55.700;38.270;2022-08-02T19:32:15;99866.25;;;20.02;52.07
55347;BME280;41218;55.700;38.270;2022-08-02T19:37:16;99865.59;;;19.94;52.15
55347;BME280;41218;55.700;38.270;2022-08-02T19:42:16;99867.03;;;19.83;52.48
55347;BME280;41218;55.700;38.270;2022-08-02T19:47:17;99865.16;;;19.76;52.47
55347;BME280;41218;55.700;38.270;2022-08-02T19:52:18;99863.69;;;19.68;52.70
55347;BME280;41218;55.700;38.270;2022-08-02T19:57:19;99862.59;;;19.61;52.95
55347;BME280;41218;55.700;38.270;2022-08-02T20:02:19;99867.09;;;19.55;53.16
55347;BME280;41218;55.700;38.270;2022-08-02T20:07:20;99824.13;;;19.18;53.07
55347;BME280;41218;55.700;38.270;2022-08-02T20:12:22;99862.59;;;19.38;53.22
55347;BME280;41218;55.700;38.270;2022-08-02T20:17:22;99854.88;;;19.22;53.50
55347;BME280;41218;55.700;38.270;2022-08-02T20:22:48;99877.59;;;19.28;54.69
55347;BME280;41218;55.700;38.270;2022-08-02T20:28:08;99868.59;;;19.16;54.00
55347;BME280;41218;55.700;38.270;2022-08-02T20:33:09;99883.06;;;19.11;54.21
55347;BME280;41218;55.700;38.270;2022-08-02T20:38:12;99865.66;;;19.00;54.48
55347;BME280;41218;55.700;38.270;2022-08-02T20:43:13;99867.28;;;18.97;54.66
55347;BME280;41218;55.700;38.270;2022-08-02T20:48:13;99872.22;;;18.90;54.57
55347;BME280;41218;55.700;38.270;2022-08-02T20:53:15;99884.59;;;18.92;54.77
55347;BME280;41218;55.700;38.270;2022-08-02T20:58:17;99890.25;;;18.89;54.71
55347;BME280;41218;55.700;38.270;2022-08-02T21:03:18;99883.13;;;18.84;55.16
55347;BME280;41218;55.700;38.270;2022-08-02T21:08:19;99858.56;;;18.65;55.45
55347;BME280;41218;55.700;38.270;2022-08-02T21:13:20;99883.22;;;18.73;55.81
55347;BME280;41218;55.700;38.270;2022-08-02T21:18:23;99878.91;;;18.69;56.00
55347;BME280;41218;55.700;38.270;2022-08-02T21:29:26;99875.78;;;18.63;56.98
55347;BME280;41218;55.700;38.270;2022-08-02T21:34:27;99881.13;;;18.54;56.29
55347;BME280;41218;55.700;38.270;2022-08-02T21:39:27;99885.00;;;18.64;55.93
55347;BME280;41218;55.700;38.270;2022-08-02T21:44:28;99867.72;;;18.38;56.04
55347;BME280;41218;55.700;38.270;2022-08-02T21:49:29;99862.59;;;18.33;56.37
55347;BME280;41218;55.700;38.270;2022-08-02T21:54:29;99858.81;;;18.16;56.44
55347;BME280;41218;55.700;38.270;2022-08-02T21:59:30;99878.50;;;18.39;56.21
55347;BME280;41218;55.700;38.270;2022-08-02T22:04:30;99890.66;;;18.29;56.62
55347;BME280;41218;55.700;38.270;2022-08-02T22:09:32;99889.53;;;18.23;56.61
55347;BME280;41218;55.700;38.270;2022-08-02T22:14:32;99894.63;;;18.28;56.42
55347;BME280;41218;55.700;38.270;2022-08-02T22:19:33;99897.63;;;18.14;56.51
55347;BME280;41218;55.700;38.270;2022-08-02T22:24:33;99897.16;;;18.19;56.40
55347;BME280;41218;55.700;38.270;2022-08-02T22:29:34;99902.94;;;18.05;56.58
55347;BME280;41218;55.700;38.270;2022-08-02T22:34:34;99896.50;;;18.08;56.58
55347;BME280;41218;55.700;38.270;2022-08-02T22:39:35;99893.53;;;17.88;56.71
55347;BME280;41218;55.700;38.270;2022-08-02T22:44:35;99908.59;;;17.97;56.57
55347;BME280;41218;55.700;38.270;2022-08-02T22:49:36;99894.81;;;17.76;56.92
55347;BME280;41218;55.700;38.270;2022-08-02T22:54:36;99906.34;;;17.85;56.83
55347;BME280;41218;55.700;38.270;2022-08-02T22:59:37;99902.44;;;17.72;56.94
55347;BME280;41218;55.700;38.270;2022-08-02T23:04:38;99901.22;;;17.76;56.88
55347;BME280;41218;55.700;38.270;2022-08-02T23:09:38;99901.34;;;17.62;57.14
55347;BME280;41218;55.700;38.270;2022-08-02T23:14:42;99910.13;;;17.64;56.90
55347;BME280;41218;55.700;38.270;2022-08-02T23:19:42;99913.03;;;17.50;57.50
55347;BME280;41218;55.700;38.270;2022-08-02T23:24:52;99901.59;;;17.33;57.69
55347;BME280;41218;55.700;38.270;2022-08-02T23:29:52;99914.28;;;17.45;57.57
55347;BME280;41218;55.700;38.270;2022-08-02T23:34:54;99907.66;;;17.28;57.87
55347;BME280;41218;55.700;38.270;2022-08-02T23:39:54;99906.91;;;17.20;58.03
55347;BME280;41218;55.700;38.270;2022-08-02T23:44:55;99935.97;;;17.30;57.81
55347;BME280;41218;55.700;38.270;2022-08-02T23:49:55;99921.75;;;17.10;58.16
55347;BME280;41218;55.700;38.270;2022-08-02T23:54:56;99935.22;;;17.22;58.04
55347;BME280;41218;55.700;38.270;2022-08-02T23:59:56;99936.88;;;17.13;58.14
